Time;durP1;ratioP1;P1;durP2;ratioP2;P2;SDS_P1;SDS_P2;PMS_P1;PMS_P2;Temp;Humidity;BMP_temperature;BMP_pressure;BME280_temperature;BME280_humidity;BME280_pressure;Samples;Min_cycle;Max_cycle;Signal;HPM_P1;HPM_P2
2023/05/18 00:00:58;;;;;;;21.67;6.43;;;;;;;;;;5108108;28;20026;-72
2023/05/18 00:03:23;;;;;;;14.67;6.27;;;;;;;;;;5111992;28;20035;-71
2023/05/18 00:05:48;;;;;;;21.70;6.13;;;;;;;;;;5110351;28;20047;-72
2023/05/18 00:08:14;;;;;;;14.40;6.07;;;;;;;;;;5098546;28;20023;-72
2023/05/18 00:10:39;;;;;;;17.63;5.70;;;;;;;;;;5112196;28;20027;-71
2023/05/18 00:13:07;;;;;;;18.33;6.40;;;;;;;;;;5109550;28;20528;-72
2023/05/18 00:15:32;;;;;;;18.67;6.00;;;;;;;;;;5111547;28;20019;-71
2023/05/18 00:17:58;;;;;;;18.27;6.57;;;;;;;;;;5116114;28;20039;-72
2023/05/18 00:20:25;;;;;;;20.83;7.20;;;;;;;;;;5115490;28;20776;-72
2023/05/18 00:22:50;;;;;;;21.47;7.17;;;;;;;;;;5113919;28;20030;-72
2023/05/18 00:25:15;;;;;;;14.33;6.63;;;;;;;;;;5115376;28;20027;-72
2023/05/18 00:27:41;;;;;;;18.70;7.27;;;;;;;;;;5106339;28;20314;-71
2023/05/18 00:30:06;;;;;;;21.07;6.93;;;;;;;;;;5114860;28;20053;-71
2023/05/18 00:32:32;;;;;;;20.47;6.83;;;;;;;;;;5100338;28;20058;-72
2023/05/18 00:34:57;;;;;;;20.40;8.23;;;;;;;;;;5113632;28;20023;-71
2023/05/18 00:37:22;;;;;;;18.63;7.50;;;;;;;;;;5115279;28;20035;-72
2023/05/18 00:39:47;;;;;;;18.97;7.40;;;;;;;;;;5113600;28;20047;-71
2023/05/18 00:42:13;;;;;;;31.57;8.33;;;;;;;;;;5115361;27;20546;-72
2023/05/18 00:44:38;;;;;;;26.13;8.03;;;;;;;;;;5113138;28;20028;-72
2023/05/18 00:47:03;;;;;;;23.47;7.70;;;;;;;;;;5113627;28;20031;-71
2023/05/18 00:49:29;;;;;;;18.87;8.23;;;;;;;;;;5100356;28;20099;-71
2023/05/18 00:51:54;;;;;;;25.93;8.33;;;;;;;;;;5110740;28;20019;-71
2023/05/18 00:54:20;;;;;;;24.53;8.83;;;;;;;;;;5113170;28;20015;-71
2023/05/18 00:56:47;;;;;;;25.37;8.40;;;;;;;;;;5115016;28;20407;-71
2023/05/18 00:59:12;;;;;;;25.77;8.70;;;;;;;;;;5113405;28;20020;-71
2023/05/18 01:04:15;;;;;;;28.50;9.53;;;;;;;;;;5071867;28;20052;-70
2023/05/18 01:06:40;;;;;;;24.17;8.77;;;;;;;;;;5058898;28;20067;-71
2023/05/18 01:09:07;;;;;;;25.23;8.73;;;;;;;;;;5072512;28;20051;-71
2023/05/18 01:11:51;;;;;;;23.43;8.30;;;;;;;;;;5068984;28;20107;-70
2023/05/18 01:14:35;;;;;;;27.03;8.73;;;;;;;;;;5073695;28;20110;-70
2023/05/18 01:17:09;;;;;;;21.00;8.67;;;;;;;;;;5071707;28;20032;-70
2023/05/18 01:19:53;;;;;;;28.60;9.87;;;;;;;;;;5074331;28;20116;-70
2023/05/18 01:22:40;;;;;;;32.37;10.23;;;;;;;;;;5073420;28;20025;-70
2023/05/18 01:25:32;;;;;;;26.40;9.27;;;;;;;;;;5031444;28;20064;-70
2023/05/18 01:28:05;;;;;;;29.30;9.55;;;;;;;;;;4956806;28;20039;-70
2023/05/18 01:30:31;;;;;;;30.43;10.10;;;;;;;;;;4955940;28;20067;-70
2023/05/18 01:32:56;;;;;;;33.17;9.93;;;;;;;;;;4955263;28;20046;-70
2023/05/18 01:35:21;;;;;;;31.90;10.30;;;;;;;;;;4957985;28;20070;-70
2023/05/18 01:37:46;;;;;;;35.70;10.90;;;;;;;;;;4954666;28;20552;-71
2023/05/18 01:40:12;;;;;;;33.33;10.70;;;;;;;;;;4959465;28;20027;-70
2023/05/18 01:42:41;;;;;;;27.30;10.30;;;;;;;;;;4954930;28;20019;-70
2023/05/18 01:45:13;;;;;;;29.87;10.53;;;;;;;;;;4957260;28;20035;-70
2023/05/18 01:47:40;;;;;;;24.67;9.45;;;;;;;;;;4966143;28;20070;-70
2023/05/18 01:50:09;;;;;;;31.87;9.97;;;;;;;;;;4963738;28;20035;-71
2023/05/18 01:52:47;;;;;;;29.57;10.73;;;;;;;;;;4964194;28;20039;-70
2023/05/18 01:55:13;;;;;;;26.73;10.23;;;;;;;;;;4968890;28;20034;-70
2023/05/18 01:57:40;;;;;;;25.70;10.40;;;;;;;;;;4960806;28;20515;-71
2023/05/18 02:00:07;;;;;;;26.80;10.47;;;;;;;;;;4955043;28;20054;-70
2023/05/18 02:02:33;;;;;;;27.70;9.73;;;;;;;;;;4995276;28;20050;-71
2023/05/18 02:04:58;;;;;;;26.50;10.07;;;;;;;;;;5024630;28;20031;-71
2023/05/18 02:07:23;;;;;;;34.60;11.17;;;;;;;;;;5053604;28;20167;-71
2023/05/18 02:09:49;;;;;;;30.70;10.33;;;;;;;;;;5052801;28;20028;-70
2023/05/18 02:12:14;;;;;;;34.50;10.93;;;;;;;;;;5053039;28;20027;-70
2023/05/18 02:14:39;;;;;;;32.17;11.23;;;;;;;;;;5052633;28;20365;-70
2023/05/18 02:17:05;;;;;;;33.90;11.03;;;;;;;;;;5052465;28;20088;-70
2023/05/18 02:19:31;;;;;;;33.37;11.50;;;;;;;;;;5051954;28;20028;-70
2023/05/18 02:21:56;;;;;;;29.27;11.93;;;;;;;;;;5050714;28;20100;-70
2023/05/18 02:24:23;;;;;;;33.20;11.20;;;;;;;;;;5053434;28;20036;-71
2023/05/18 02:26:48;;;;;;;39.27;12.40;;;;;;;;;;5053257;28;20078;-70
2023/05/18 02:29:14;;;;;;;36.57;11.47;;;;;;;;;;5052461;28;20095;-70
2023/05/18 02:31:39;;;;;;;27.67;11.63;;;;;;;;;;5051512;28;20070;-68
2023/05/18 02:34:05;;;;;;;35.23;12.60;;;;;;;;;;5053396;28;20155;-68
2023/05/18 02:36:35;;;;;;;36.03;12.20;;;;;;;;;;5051524;28;20377;-68
2023/05/18 02:39:01;;;;;;;32.30;12.13;;;;;;;;;;5053031;28;20028;-68
2023/05/18 02:41:26;;;;;;;36.83;12.37;;;;;;;;;;5052341;28;20040;-68
2023/05/18 02:43:51;;;;;;;34.00;11.60;;;;;;;;;;5052345;28;20473;-70
2023/05/18 02:46:17;;;;;;;34.13;11.97;;;;;;;;;;5051740;28;20126;-69
2023/05/18 02:48:44;;;;;;;33.57;11.37;;;;;;;;;;5052488;28;20029;-70
2023/05/18 02:51:09;;;;;;;36.07;12.83;;;;;;;;;;5052376;28;20464;-69
2023/05/18 02:53:35;;;;;;;32.17;10.73;;;;;;;;;;5052600;28;20087;-70
2023/05/18 02:56:02;;;;;;;35.73;13.33;;;;;;;;;;5052786;28;20362;-70
2023/05/18 02:58:27;;;;;;;39.13;12.00;;;;;;;;;;5052772;28;20025;-70
2023/05/18 03:00:58;;;;;;;29.83;11.90;;;;;;;;;;5049639;28;20025;-70
2023/05/18 03:03:24;;;;;;;35.22;11.40;;;;;;;;;;5062107;28;20044;-70
2023/05/18 03:05:52;;;;;;;38.77;12.50;;;;;;;;;;5071298;28;20486;-70
2023/05/18 03:08:21;;;;;;;33.13;11.50;;;;;;;;;;5060691;28;20013;-70
2023/05/18 03:10:47;;;;;;;31.53;11.00;;;;;;;;;;5059897;28;20392;-70
2023/05/18 03:13:12;;;;;;;27.60;11.23;;;;;;;;;;5071179;28;20031;-70
2023/05/18 03:15:38;;;;;;;35.80;10.80;;;;;;;;;;5067622;28;20349;-70
2023/05/18 03:18:03;;;;;;;33.33;11.50;;;;;;;;;;5073173;28;20103;-70
2023/05/18 03:20:30;;;;;;;30.50;11.30;;;;;;;;;;5071142;28;20027;-70
2023/05/18 03:22:55;;;;;;;36.20;10.70;;;;;;;;;;5073174;28;20268;-70
2023/05/18 03:25:21;;;;;;;26.70;10.63;;;;;;;;;;5071616;28;20017;-70
2023/05/18 03:27:47;;;;;;;27.47;10.37;;;;;;;;;;5072671;28;20021;-71
2023/05/18 03:30:12;;;;;;;23.63;10.37;;;;;;;;;;5064682;28;20029;-70
2023/05/18 03:32:37;;;;;;;27.77;10.00;;;;;;;;;;5072346;28;20522;-70
2023/05/18 03:35:03;;;;;;;28.03;10.10;;;;;;;;;;5072393;28;20017;-70
2023/05/18 03:37:29;;;;;;;28.17;9.20;;;;;;;;;;5071160;28;20384;-70
2023/05/18 03:39:58;;;;;;;25.03;10.70;;;;;;;;;;5072642;28;20021;-70
2023/05/18 03:42:24;;;;;;;23.47;9.47;;;;;;;;;;5069310;28;20388;-70
2023/05/18 03:44:49;;;;;;;18.60;8.80;;;;;;;;;;5070455;28;20024;-70
2023/05/18 03:47:15;;;;;;;20.57;8.80;;;;;;;;;;5071283;28;20028;-70
2023/05/18 03:49:40;;;;;;;16.30;8.10;;;;;;;;;;5068316;28;20028;-70
2023/05/18 03:52:06;;;;;;;21.63;8.73;;;;;;;;;;5067832;28;20016;-69
2023/05/18 03:54:31;;;;;;;17.67;8.07;;;;;;;;;;5076491;28;20051;-69
2023/05/18 03:56:56;;;;;;;21.10;8.27;;;;;;;;;;5072072;28;20055;-69
2023/05/18 03:59:22;;;;;;;23.47;7.73;;;;;;;;;;5075995;28;20361;-70
2023/05/18 04:01:47;;;;;;;19.30;7.57;;;;;;;;;;5072966;28;20462;-70
2023/05/18 04:04:16;;;;;;;26.33;9.07;;;;;;;;;;5075828;28;20028;-70
2023/05/18 04:06:45;;;;;;;17.27;7.07;;;;;;;;;;5075044;28;20043;-70
2023/05/18 04:09:11;;;;;;;13.17;6.83;;;;;;;;;;5076017;28;20025;-70
2023/05/18 04:11:36;;;;;;;16.43;7.00;;;;;;;;;;5075346;28;20092;-69
2023/05/18 04:14:01;;;;;;;17.33;6.77;;;;;;;;;;5074606;28;20042;-70
2023/05/18 04:16:27;;;;;;;13.87;6.50;;;;;;;;;;5075355;28;20487;-70
2023/05/18 04:18:52;;;;;;;15.37;7.03;;;;;;;;;;5074950;28;20056;-70
2023/05/18 04:21:18;;;;;;;17.27;7.17;;;;;;;;;;5074608;28;20099;-71
2023/05/18 04:23:43;;;;;;;16.77;6.47;;;;;;;;;;5069627;28;20029;-70
2023/05/18 04:26:09;;;;;;;16.20;6.60;;;;;;;;;;5074995;28;20032;-70
2023/05/18 04:28:36;;;;;;;15.60;6.93;;;;;;;;;;5075317;28;20020;-70
2023/05/18 04:31:02;;;;;;;16.67;6.73;;;;;;;;;;5075126;28;20094;-70
2023/05/18 04:33:30;;;;;;;15.10;6.03;;;;;;;;;;5075618;28;20036;-70
2023/05/18 04:35:57;;;;;;;13.07;6.17;;;;;;;;;;5074689;28;20032;-70
2023/05/18 04:38:22;;;;;;;13.17;6.43;;;;;;;;;;5074699;28;20025;-70
2023/05/18 04:40:49;;;;;;;14.97;6.30;;;;;;;;;;5074490;28;20032;-70
2023/05/18 04:43:14;;;;;;;18.00;6.00;;;;;;;;;;5075192;28;20029;-70
2023/05/18 04:45:40;;;;;;;14.73;5.60;;;;;;;;;;5074575;28;20028;-70
2023/05/18 04:48:05;;;;;;;11.83;5.67;;;;;;;;;;5075164;28;20032;-70
2023/05/18 04:50:30;;;;;;;17.93;6.43;;;;;;;;;;5073508;28;20025;-70
2023/05/18 04:52:56;;;;;;;14.00;5.80;;;;;;;;;;5074466;28;20048;-70
2023/05/18 04:55:24;;;;;;;15.63;6.00;;;;;;;;;;5073783;28;20028;-70
2023/05/18 04:57:52;;;;;;;11.70;5.90;;;;;;;;;;5073443;28;20023;-70
2023/05/18 05:00:18;;;;;;;16.60;5.97;;;;;;;;;;5065412;28;20047;-70
2023/05/18 05:02:43;;;;;;;13.10;5.80;;;;;;;;;;5073863;28;20049;-71
2023/05/18 05:05:08;;;;;;;14.73;5.80;;;;;;;;;;5074399;28;20024;-70
2023/05/18 05:07:34;;;;;;;12.77;6.63;;;;;;;;;;5073397;28;20039;-70
2023/05/18 05:09:59;;;;;;;23.07;11.47;;;;;;;;;;5066290;28;20021;-70
2023/05/18 05:12:24;;;;;;;25.80;17.53;;;;;;;;;;5074713;28;20401;-70
2023/05/18 05:14:50;;;;;;;14.07;6.23;;;;;;;;;;5072188;28;20034;-70
2023/05/18 05:17:15;;;;;;;15.83;9.37;;;;;;;;;;5070429;28;20032;-70
2023/05/18 05:19:41;;;;;;;23.03;14.63;;;;;;;;;;5069233;28;20449;-70
2023/05/18 05:22:06;;;;;;;14.33;7.17;;;;;;;;;;5070857;28;20537;-71
2023/05/18 05:24:31;;;;;;;15.37;6.03;;;;;;;;;;5055609;28;20029;-70
2023/05/18 05:26:57;;;;;;;17.17;5.43;;;;;;;;;;5072522;28;20024;-70
2023/05/18 05:29:22;;;;;;;10.30;4.60;;;;;;;;;;5071937;28;20469;-70
2023/05/18 05:31:47;;;;;;;11.50;5.20;;;;;;;;;;5072807;28;20103;-70
2023/05/18 05:34:13;;;;;;;14.13;5.77;;;;;;;;;;5073551;28;20032;-70
2023/05/18 05:36:38;;;;;;;12.40;5.20;;;;;;;;;;5071601;28;20020;-70
2023/05/18 05:39:03;;;;;;;14.30;4.87;;;;;;;;;;5072594;28;20115;-70
2023/05/18 05:41:29;;;;;;;15.10;5.77;;;;;;;;;;5073096;28;20139;-70
2023/05/18 05:43:55;;;;;;;13.07;4.60;;;;;;;;;;5071739;28;20032;-70
2023/05/18 05:46:20;;;;;;;10.23;4.53;;;;;;;;;;5065072;28;20032;-70
2023/05/18 05:48:46;;;;;;;11.13;4.53;;;;;;;;;;5055508;28;20035;-70
2023/05/18 05:51:11;;;;;;;11.23;4.77;;;;;;;;;;5073681;28;20089;-70
2023/05/18 05:53:36;;;;;;;10.07;4.27;;;;;;;;;;5072979;28;20439;-70
2023/05/18 05:56:02;;;;;;;10.90;4.03;;;;;;;;;;5072856;28;20024;-70
2023/05/18 05:58:27;;;;;;;8.17;4.50;;;;;;;;;;5063961;28;20036;-70
2023/05/18 06:00:52;;;;;;;11.03;4.23;;;;;;;;;;5066601;28;20024;-70
2023/05/18 06:03:17;;;;;;;11.07;4.80;;;;;;;;;;5073751;28;20045;-70
2023/05/18 06:05:43;;;;;;;11.70;5.70;;;;;;;;;;5073234;28;20141;-70
2023/05/18 06:08:08;;;;;;;15.53;6.67;;;;;;;;;;5074167;28;20036;-70
2023/05/18 06:10:33;;;;;;;13.47;6.30;;;;;;;;;;5070323;28;20019;-70
2023/05/18 06:12:59;;;;;;;11.33;6.07;;;;;;;;;;5073184;28;20052;-70
2023/05/18 06:15:24;;;;;;;8.73;5.37;;;;;;;;;;5069222;28;20021;-70
2023/05/18 06:17:49;;;;;;;16.20;6.83;;;;;;;;;;5053927;28;20108;-70
2023/05/18 06:20:15;;;;;;;12.50;4.33;;;;;;;;;;5053860;28;20037;-70
2023/05/18 06:22:40;;;;;;;10.63;5.20;;;;;;;;;;5063860;28;20400;-70
2023/05/18 06:25:07;;;;;;;8.30;4.17;;;;;;;;;;5070982;28;20020;-69
2023/05/18 06:27:32;;;;;;;10.33;4.60;;;;;;;;;;5055534;28;20458;-70
2023/05/18 06:29:57;;;;;;;9.73;5.17;;;;;;;;;;5066099;28;20071;-70
2023/05/18 06:32:23;;;;;;;10.10;5.30;;;;;;;;;;5073199;28;20025;-70
2023/05/18 06:34:49;;;;;;;11.57;5.57;;;;;;;;;;5073290;28;20067;-70
2023/05/18 06:37:14;;;;;;;12.23;4.73;;;;;;;;;;5072617;28;20473;-70
2023/05/18 06:39:40;;;;;;;13.80;5.00;;;;;;;;;;5073305;28;20078;-70
2023/05/18 06:42:05;;;;;;;13.40;4.60;;;;;;;;;;5063461;28;20040;-70
2023/05/18 06:44:31;;;;;;;13.50;4.70;;;;;;;;;;5053219;28;20392;-70
2023/05/18 06:46:56;;;;;;;11.33;4.50;;;;;;;;;;5053065;28;20025;-70
2023/05/18 06:49:21;;;;;;;13.93;4.33;;;;;;;;;;5053144;28;20024;-70
2023/05/18 06:51:46;;;;;;;10.40;4.50;;;;;;;;;;5053321;28;20021;-70
2023/05/18 06:54:12;;;;;;;11.53;3.77;;;;;;;;;;5053265;28;20100;-70
2023/05/18 06:56:37;;;;;;;10.63;4.93;;;;;;;;;;5062574;28;20066;-70
2023/05/18 06:59:02;;;;;;;11.13;4.13;;;;;;;;;;5073379;28;20060;-70
2023/05/18 07:01:28;;;;;;;13.03;4.57;;;;;;;;;;5073250;28;20384;-70
2023/05/18 07:03:53;;;;;;;11.70;4.47;;;;;;;;;;5070877;28;20393;-70
2023/05/18 07:06:18;;;;;;;16.37;4.23;;;;;;;;;;5073124;28;20103;-70
2023/05/18 07:08:44;;;;;;;12.63;4.43;;;;;;;;;;5073232;28;20044;-70
2023/05/18 07:11:09;;;;;;;10.90;4.10;;;;;;;;;;5072498;28;20012;-70
2023/05/18 07:13:35;;;;;;;9.70;4.30;;;;;;;;;;5071745;28;20031;-70
2023/05/18 07:16:00;;;;;;;11.87;3.83;;;;;;;;;;5054977;28;20096;-70
2023/05/18 07:18:25;;;;;;;8.43;3.67;;;;;;;;;;5053127;28;20041;-70
2023/05/18 07:20:51;;;;;;;9.57;4.00;;;;;;;;;;5053122;28;20423;-70
2023/05/18 07:23:16;;;;;;;11.90;4.37;;;;;;;;;;5054871;28;20078;-70
2023/05/18 07:25:41;;;;;;;12.70;4.50;;;;;;;;;;5056909;28;20024;-70
2023/05/18 07:28:07;;;;;;;12.50;3.87;;;;;;;;;;5057179;28;20028;-70
2023/05/18 07:30:32;;;;;;;10.03;4.20;;;;;;;;;;5057171;28;20376;-70
2023/05/18 07:32:57;;;;;;;8.83;3.90;;;;;;;;;;5056839;28;20079;-71
2023/05/18 07:35:25;;;;;;;12.40;3.90;;;;;;;;;;5062119;28;20028;-70
2023/05/18 07:37:51;;;;;;;8.40;4.13;;;;;;;;;;5077061;28;20102;-70
2023/05/18 07:40:16;;;;;;;9.57;3.93;;;;;;;;;;5076744;28;20100;-70
2023/05/18 07:42:42;;;;;;;9.33;4.40;;;;;;;;;;5076883;28;20103;-70
2023/05/18 07:45:07;;;;;;;9.30;5.10;;;;;;;;;;5076812;28;20028;-71
2023/05/18 07:47:33;;;;;;;7.73;3.77;;;;;;;;;;5074797;28;20024;-70
2023/05/18 07:49:58;;;;;;;17.23;4.10;;;;;;;;;;5076751;28;20376;-70
2023/05/18 07:52:23;;;;;;;13.70;5.10;;;;;;;;;;5074422;28;20102;-70
2023/05/18 07:54:49;;;;;;;9.05;4.05;;;;;;;;;;5076321;28;20383;-70
2023/05/18 07:57:14;;;;;;;9.38;4.28;;;;;;;;;;5076494;28;20029;-70
2023/05/18 07:59:39;;;;;;;10.68;3.90;;;;;;;;;;5076215;28;20115;-70
2023/05/18 08:02:05;;;;;;;11.43;4.18;;;;;;;;;;5059106;28;20041;-70
2023/05/18 08:04:30;;;;;;;8.07;3.08;;;;;;;;;;5056406;28;20055;-70
2023/05/18 08:06:59;;;;;;;9.87;3.43;;;;;;;;;;5073569;28;20032;-70
2023/05/18 08:09:25;;;;;;;10.50;3.00;;;;;;;;;;5076481;28;20024;-70
2023/05/18 08:11:51;;;;;;;9.70;3.47;;;;;;;;;;5059614;28;20040;-70
2023/05/18 08:14:16;;;;;;;9.53;3.30;;;;;;;;;;5056172;28;20056;-70
2023/05/18 08:16:41;;;;;;;5.80;2.30;;;;;;;;;;5055918;28;20075;-70
2023/05/18 08:19:06;;;;;;;9.80;2.83;;;;;;;;;;5056035;28;20017;-70
2023/05/18 08:21:32;;;;;;;11.57;3.08;;;;;;;;;;5055821;28;20464;-71
2023/05/18 08:23:57;;;;;;;12.77;3.20;;;;;;;;;;5055931;28;20109;-71
2023/05/18 08:26:23;;;;;;;9.00;2.58;;;;;;;;;;5056043;28;20107;-71
2023/05/18 08:28:48;;;;;;;7.47;2.00;;;;;;;;;;5055710;28;20500;-71
2023/05/18 08:31:14;;;;;;;7.40;1.92;;;;;;;;;;5055933;28;20013;-71
2023/05/18 08:33:40;;;;;;;8.70;2.33;;;;;;;;;;5055745;28;20040;-70
2023/05/18 08:36:06;;;;;;;7.15;2.17;;;;;;;;;;5055300;28;20028;-70
2023/05/18 08:38:32;;;;;;;4.85;1.80;;;;;;;;;;5055392;28;20017;-70
2023/05/18 08:41:01;;;;;;;7.80;2.07;;;;;;;;;;5055759;28;20090;-70
2023/05/18 08:43:32;;;;;;;10.93;2.30;;;;;;;;;;5055418;28;20100;-68
2023/05/18 08:46:00;;;;;;;9.52;2.08;;;;;;;;;;5055619;28;20029;-68
2023/05/18 08:48:26;;;;;;;8.15;1.90;;;;;;;;;;5055573;28;20025;-68
2023/05/18 08:50:53;;;;;;;5.90;1.83;;;;;;;;;;5055348;28;20377;-69
2023/05/18 08:53:20;;;;;;;11.82;2.17;;;;;;;;;;5037360;28;20082;-69
2023/05/18 08:55:45;;;;;;;11.15;2.40;;;;;;;;;;5057611;28;20402;-68
2023/05/18 08:58:12;;;;;;;6.88;2.42;;;;;;;;;;5057145;28;20028;-68
2023/05/18 09:00:37;;;;;;;10.55;2.30;;;;;;;;;;5075340;28;20025;-69
2023/05/18 09:03:03;;;;;;;8.90;1.98;;;;;;;;;;5056912;28;20381;-69
2023/05/18 09:05:28;;;;;;;7.72;2.33;;;;;;;;;;5074921;28;20432;-69
2023/05/18 09:07:53;;;;;;;10.43;2.05;;;;;;;;;;5060141;28;20029;-69
2023/05/18 09:10:19;;;;;;;10.70;2.40;;;;;;;;;;5055119;28;20096;-69
2023/05/18 09:12:45;;;;;;;8.65;2.00;;;;;;;;;;5069676;28;20434;-68
2023/05/18 09:15:12;;;;;;;7.80;2.30;;;;;;;;;;5074299;28;20058;-69
2023/05/18 09:17:37;;;;;;;5.32;1.90;;;;;;;;;;5056974;28;20021;-69
2023/05/18 09:20:06;;;;;;;8.95;1.90;;;;;;;;;;5055078;28;20024;-69
2023/05/18 09:22:31;;;;;;;7.97;2.28;;;;;;;;;;5055099;28;20388;-69
2023/05/18 09:24:57;;;;;;;9.18;2.30;;;;;;;;;;5055015;28;20104;-69
2023/05/18 09:27:22;;;;;;;5.97;1.77;;;;;;;;;;5054626;28;20377;-69
2023/05/18 09:29:54;;;;;;;6.75;1.98;;;;;;;;;;5054530;28;20048;-69
2023/05/18 09:32:20;;;;;;;9.90;2.58;;;;;;;;;;5054870;28;20161;-69
2023/05/18 09:34:47;;;;;;;8.20;2.35;;;;;;;;;;5054803;28;20025;-69
2023/05/18 09:37:15;;;;;;;7.40;2.20;;;;;;;;;;5055438;28;20023;-69
2023/05/18 09:39:41;;;;;;;8.48;1.85;;;;;;;;;;5054684;28;20016;-69
2023/05/18 09:42:06;;;;;;;9.48;2.35;;;;;;;;;;5054602;28;20088;-69
2023/05/18 09:44:34;;;;;;;7.60;2.22;;;;;;;;;;5054321;28;20020;-69
2023/05/18 09:47:00;;;;;;;6.22;2.40;;;;;;;;;;5053333;28;20025;-69
2023/05/18 09:49:27;;;;;;;7.28;2.40;;;;;;;;;;5054126;28;20473;-69
2023/05/18 09:51:53;;;;;;;8.38;2.40;;;;;;;;;;5054099;28;20096;-69
2023/05/18 09:54:18;;;;;;;7.35;2.17;;;;;;;;;;5054309;28;20049;-69
2023/05/18 09:56:44;;;;;;;8.25;2.47;;;;;;;;;;5067716;28;20021;-69
2023/05/18 09:59:10;;;;;;;8.27;2.70;;;;;;;;;;5073339;28;20376;-69
2023/05/18 10:01:35;;;;;;;7.95;2.95;;;;;;;;;;5059121;28;20401;-69
2023/05/18 10:04:04;;;;;;;6.18;2.38;;;;;;;;;;5053741;28;20132;-69
2023/05/18 10:06:30;;;;;;;7.75;2.60;;;;;;;;;;5053712;28;20124;-70
2023/05/18 10:08:56;;;;;;;8.85;2.30;;;;;;;;;;5060969;28;20024;-69
2023/05/18 10:11:22;;;;;;;7.05;2.42;;;;;;;;;;5073582;28;20481;-70
2023/05/18 10:13:52;;;;;;;7.63;2.40;;;;;;;;;;5072731;28;20074;-70
2023/05/18 10:16:17;;;;;;;8.05;2.83;;;;;;;;;;5053659;28;20013;-70
2023/05/18 10:18:43;;;;;;;5.30;2.03;;;;;;;;;;5053954;28;20035;-69
2023/05/18 10:21:11;;;;;;;8.20;3.08;;;;;;;;;;5053932;28;20403;-70
2023/05/18 10:23:39;;;;;;;6.45;2.35;;;;;;;;;;5053635;28;20028;-70
2023/05/18 10:26:05;;;;;;;7.63;2.88;;;;;;;;;;5053472;28;20041;-71
2023/05/18 10:28:41;;;;;;;8.02;2.70;;;;;;;;;;5053507;28;20024;-70
2023/05/18 10:31:07;;;;;;;9.18;2.67;;;;;;;;;;5053766;28;20349;-70
2023/05/18 10:33:34;;;;;;;10.88;2.65;;;;;;;;;;5053228;28;20020;-69
2023/05/18 10:36:01;;;;;;;7.47;2.50;;;;;;;;;;5053679;28;20021;-69
2023/05/18 10:38:27;;;;;;;6.25;2.38;;;;;;;;;;5053633;28;20478;-69
2023/05/18 10:40:57;;;;;;;8.25;2.53;;;;;;;;;;5053506;28;20098;-69
2023/05/18 10:43:26;;;;;;;7.05;2.15;;;;;;;;;;5053271;28;20025;-70
2023/05/18 10:46:00;;;;;;;5.25;2.00;;;;;;;;;;5053197;28;20028;-70
2023/05/18 10:48:27;;;;;;;6.25;2.10;;;;;;;;;;5053204;28;20025;-70
2023/05/18 10:50:53;;;;;;;9.07;2.03;;;;;;;;;;5053067;28;20048;-71
2023/05/18 10:53:19;;;;;;;8.60;1.98;;;;;;;;;;5053423;28;20056;-71
2023/05/18 10:55:46;;;;;;;8.05;2.40;;;;;;;;;;5055717;28;20096;-71
2023/05/18 10:58:13;;;;;;;8.55;2.38;;;;;;;;;;5072789;28;20100;-71
2023/05/18 11:00:39;;;;;;;7.47;2.22;;;;;;;;;;5073383;28;20488;-71
2023/05/18 11:03:07;;;;;;;9.07;2.28;;;;;;;;;;5063196;28;20382;-71
2023/05/18 11:05:32;;;;;;;8.00;2.15;;;;;;;;;;5057395;28;20013;-71
2023/05/18 11:08:02;;;;;;;6.55;2.00;;;;;;;;;;5072841;28;20048;-71
2023/05/18 11:10:41;;;;;;;10.63;2.80;;;;;;;;;;5072893;28;20020;-71
2023/05/18 11:13:07;;;;;;;7.45;2.80;;;;;;;;;;5072829;28;20019;-70
2023/05/18 11:15:51;;;;;;;13.65;5.70;;;;;;;;;;5072968;28;20380;-71
2023/05/18 11:18:16;;;;;;;9.38;5.38;;;;;;;;;;5073089;28;20021;-70
2023/05/18 11:20:43;;;;;;;10.45;3.63;;;;;;;;;;5073175;28;20431;-70
2023/05/18 11:23:09;;;;;;;7.05;2.70;;;;;;;;;;5068354;28;20021;-70
2023/05/18 11:25:37;;;;;;;9.00;2.80;;;;;;;;;;5052653;28;20358;-71
2023/05/18 11:28:04;;;;;;;10.50;3.92;;;;;;;;;;5052943;28;20028;-71
2023/05/18 11:30:43;;;;;;;11.50;5.80;;;;;;;;;;5052969;28;20103;-70
2023/05/18 11:33:29;;;;;;;8.75;4.22;;;;;;;;;;5052761;28;20072;-69
2023/05/18 11:36:10;;;;;;;6.50;2.55;;;;;;;;;;5052584;28;20029;-70
2023/05/18 11:38:52;;;;;;;5.82;3.03;;;;;;;;;;5052466;28;20024;-70
2023/05/18 11:41:34;;;;;;;9.73;2.83;;;;;;;;;;5052819;28;20019;-70
2023/05/18 11:43:59;;;;;;;;;;;;;;;;;;5054821;28;20009;-70
2023/05/18 11:46:25;;;;;;;10.48;2.90;;;;;;;;;;5072709;28;19934;-71
2023/05/18 11:48:50;;;;;;;8.63;4.28;;;;;;;;;;5072509;28;20490;-69
2023/05/18 11:51:15;;;;;;;8.45;2.72;;;;;;;;;;5072751;28;20047;-70
2023/05/18 11:53:41;;;;;;;10.18;2.60;;;;;;;;;;5072576;28;20380;-70
2023/05/18 11:56:10;;;;;;;12.00;2.53;;;;;;;;;;5072674;28;20016;-71
2023/05/18 11:58:35;;;;;;;7.50;2.38;;;;;;;;;;5072433;28;20158;-71
2023/05/18 12:01:01;;;;;;;7.57;3.88;;;;;;;;;;5071559;28;20067;-71
2023/05/18 12:03:28;;;;;;;6.68;2.78;;;;;;;;;;5070524;28;20044;-70
2023/05/18 12:05:56;;;;;;;5.57;2.10;;;;;;;;;;5071847;28;20052;-70
2023/05/18 12:08:28;;;;;;;11.32;4.07;;;;;;;;;;5072105;28;20116;-71
2023/05/18 12:10:53;;;;;;;;;;;;;;;;;;5071295;28;20020;-70
2023/05/18 12:13:19;;;;;;;7.38;2.40;;;;;;;;;;5074751;28;19908;-72
2023/05/18 12:15:44;;;;;;;10.82;2.72;;;;;;;;;;5076230;28;20279;-71
2023/05/18 12:18:10;;;;;;;9.95;2.90;;;;;;;;;;5057902;28;20020;-72
2023/05/18 12:20:37;;;;;;;11.45;2.65;;;;;;;;;;5076179;28;20020;-71
2023/05/18 12:23:03;;;;;;;6.45;2.50;;;;;;;;;;5076144;28;20383;-71
2023/05/18 12:25:28;;;;;;;6.78;2.53;;;;;;;;;;5075744;28;20099;-71
2023/05/18 12:27:55;;;;;;;6.70;2.22;;;;;;;;;;5075981;28;20021;-71
2023/05/18 12:30:21;;;;;;;7.65;2.20;;;;;;;;;;5076035;28;20475;-71
2023/05/18 12:32:56;;;;;;;7.63;2.90;;;;;;;;;;5075954;28;20013;-71
2023/05/18 12:35:22;;;;;;;7.47;2.45;;;;;;;;;;5075925;28;20044;-70
2023/05/18 12:37:47;;;;;;;8.70;2.55;;;;;;;;;;5075505;28;20020;-71
2023/05/18 12:40:13;;;;;;;9.88;2.92;;;;;;;;;;5075800;28;20024;-71
2023/05/18 12:42:39;;;;;;;8.48;2.97;;;;;;;;;;5075322;28;20016;-71
2023/05/18 12:45:05;;;;;;;6.82;4.00;;;;;;;;;;5075391;28;20172;-70
2023/05/18 12:47:31;;;;;;;7.40;2.53;;;;;;;;;;5075459;28;20376;-71
2023/05/18 12:49:59;;;;;;;8.13;2.28;;;;;;;;;;5075244;28;20020;-71
2023/05/18 12:52:25;;;;;;;10.07;4.10;;;;;;;;;;5075218;28;20021;-71
2023/05/18 12:54:57;;;;;;;7.25;2.42;;;;;;;;;;5075253;28;20020;-71
2023/05/18 12:57:25;;;;;;;6.65;2.28;;;;;;;;;;5075031;28;20091;-71
2023/05/18 12:59:54;;;;;;;6.72;2.38;;;;;;;;;;5074391;28;20016;-71
2023/05/18 13:02:32;;;;;;;6.38;2.70;;;;;;;;;;5066107;28;20033;-70
2023/05/18 13:05:20;;;;;;;11.52;5.60;;;;;;;;;;5055021;28;20025;-71
2023/05/18 13:07:46;;;;;;;5.97;2.53;;;;;;;;;;5054480;28;20029;-72
2023/05/18 13:10:15;;;;;;;9.50;2.78;;;;;;;;;;5054916;28;20013;-71
2023/05/18 13:12:41;;;;;;;44.92;30.70;;;;;;;;;;5054895;28;20017;-72
2023/05/18 13:15:16;;;;;;;12.15;4.13;;;;;;;;;;5054886;28;20017;-72
2023/05/18 13:18:14;;;;;;;8.07;2.60;;;;;;;;;;5054900;28;20036;-72
2023/05/18 13:20:44;;;;;;;8.57;2.58;;;;;;;;;;5010280;28;20563;-73
2023/05/18 13:23:10;;;;;;;23.35;13.98;;;;;;;;;;5055090;28;20025;-72
2023/05/18 13:25:36;;;;;;;11.10;2.90;;;;;;;;;;5055000;28;20052;-72
2023/05/18 13:28:01;;;;;;;8.77;4.05;;;;;;;;;;5054924;28;20020;-71
2023/05/18 13:30:27;;;;;;;111.63;85.57;;;;;;;;;;5054875;28;20009;-71
2023/05/18 13:32:52;;;;;;;9.32;4.50;;;;;;;;;;5057208;28;20031;-71
2023/05/18 13:35:18;;;;;;;8.75;2.92;;;;;;;;;;5054588;28;20044;-71
2023/05/18 13:37:45;;;;;;;45.85;29.27;;;;;;;;;;5054506;28;20078;-70
2023/05/18 13:40:12;;;;;;;9.68;2.78;;;;;;;;;;5054480;28;20048;-70
2023/05/18 13:42:37;;;;;;;8.20;3.42;;;;;;;;;;5054351;28;20029;-71
2023/05/18 13:45:03;;;;;;;7.15;2.60;;;;;;;;;;5054554;28;20032;-72
2023/05/18 13:47:28;;;;;;;8.75;2.60;;;;;;;;;;5054587;28;20028;-72
2023/05/18 13:49:53;;;;;;;55.10;32.10;;;;;;;;;;5054542;28;20358;-71
2023/05/18 13:52:19;;;;;;;97.45;63.80;;;;;;;;;;5054380;28;20016;-69
2023/05/18 13:54:44;;;;;;;49.05;33.03;;;;;;;;;;5071255;28;20027;-70
2023/05/18 13:57:09;;;;;;;9.48;4.05;;;;;;;;;;5074154;28;20376;-71
2023/05/18 13:59:35;;;;;;;8.70;4.10;;;;;;;;;;5073474;28;20419;-71
2023/05/18 14:02:00;;;;;;;7.97;2.78;;;;;;;;;;5072394;28;20017;-71
2023/05/18 14:04:26;;;;;;;7.22;2.88;;;;;;;;;;5074120;28;20021;-71
2023/05/18 14:06:54;;;;;;;9.68;2.80;;;;;;;;;;5065870;28;20416;-71
2023/05/18 14:09:20;;;;;;;9.05;2.67;;;;;;;;;;5055792;28;20043;-70
2023/05/18 14:11:45;;;;;;;8.90;2.60;;;;;;;;;;5056268;28;20020;-70
2023/05/18 14:14:11;;;;;;;9.15;2.92;;;;;;;;;;5074156;28;20070;-71
2023/05/18 14:16:36;;;;;;;10.00;3.50;;;;;;;;;;5073689;28;20099;-71
2023/05/18 14:19:02;;;;;;;8.93;2.80;;;;;;;;;;5073932;28;20032;-71
2023/05/18 14:21:27;;;;;;;9.45;3.45;;;;;;;;;;5073571;28;20020;-71
2023/05/18 14:23:52;;;;;;;6.70;2.63;;;;;;;;;;5073783;28;20020;-70
2023/05/18 14:26:17;;;;;;;5.57;2.28;;;;;;;;;;5073623;28;20103;-70
2023/05/18 14:28:43;;;;;;;13.82;3.08;;;;;;;;;;5073710;28;20024;-71
2023/05/18 14:31:08;;;;;;;8.60;2.50;;;;;;;;;;5073445;28;20042;-71
2023/05/18 14:33:33;;;;;;;6.32;2.30;;;;;;;;;;5072851;28;20017;-70